| Date | Time | Temp. (oF) | Dew Point (oF) | Rel. Hum. (%) | Press. (in.) | Wind Dir. | Wind Speed (mph) | Hourly Rainfall (in.) |
|
|---|---|---|---|---|---|---|---|---|---|
| 1 | 05/09 | 00:00 | 62 | 60 | 94 | 29.82 | WSW | 0 | 0.00 |
| 2 | 05/08 | 23:00 | 62 | 60 | 94 | 29.83 | SW | 4 | 0.00 |
| 3 | 05/08 | 22:00 | 62 | 60 | 95 | 29.84 | SSW | 4 | 0.02 |
| 4 | 05/08 | 21:00 | 63 | 60 | 90 | 29.82 | SSE | 6 | 0.00 |
| 5 | 05/08 | 20:00 | 63 | 60 | 90 | 29.82 | SSW | 7 | 0.00 |
| 6 | 05/08 | 19:00 | 63 | 59 | 89 | 29.82 | SW | 5 | 0.00 |
| 7 | 05/08 | 18:00 | 63 | 60 | 91 | 29.82 | SSW | 6 | 0.00 |
| 8 | 05/08 | 17:00 | 63 | 61 | 94 | 29.83 | S | 3 | 0.01 |
| 9 | 05/08 | 16:00 | 63 | 60 | 91 | 29.85 | S | 4 | 0.01 |
| 10 | 05/08 | 15:00 | 63 | 60 | 92 | 29.87 | S | 5 | 0.07 |
| 11 | 05/08 | 14:00 | 64 | 59 | 84 | 29.89 | SW | 14 | 0.03 |
| 12 | 05/08 | 13:00 | 67 | 57 | 71 | 29.89 | S | 8 | 0.00 |
| 13 | 05/08 | 12:00 | 68 | 57 | 70 | 29.90 | SW | 11 | 0.00 |
| 14 | 05/08 | 11:00 | 66 | 56 | 72 | 29.93 | SSW | 6 | 0.00 |
| 15 | 05/08 | 10:00 | 65 | 56 | 73 | 29.94 | SW | 6 | 0.00 |
| 16 | 05/08 | 09:00 | 63 | 56 | 78 | 29.95 | SSW | 7 | 0.00 |
| 17 | 05/08 | 08:00 | 60 | 55 | 84 | 29.97 | SSW | 4 | 0.00 |
| 18 | 05/08 | 07:00 | 58 | 53 | 85 | 29.99 | SW | 2 | 0.00 |
| 19 | 05/08 | 06:00 | 57 | 51 | 82 | 29.99 | SW | 6 | 0.00 |
| 20 | 05/08 | 05:00 | 58 | 51 | 78 | 29.99 | SW | 8 | 0.00 |
| 21 | 05/08 | 04:00 | 58 | 49 | 73 | 29.99 | SW | 4 | 0.00 |
| 22 | 05/08 | 03:00 | 58 | 47 | 67 | 30.01 | SW | 4 | 0.00 |
| 23 | 05/08 | 02:00 | 58 | 44 | 60 | 30.03 | SW | 9 | 0.00 |
| 24 | 05/08 | 01:00 | 58 | 42 | 56 | 30.04 | SW | 7 | 0.00 |